createdAt,value
2019-03-27T00:00:24.998Z,9.83
2019-03-27T00:00:51.102Z,9.8
2019-03-27T00:01:17.208Z,9.79
2019-03-27T00:01:43.324Z,9.84
2019-03-27T00:02:09.457Z,9.84
2019-03-27T00:02:35.591Z,9.87
2019-03-27T00:03:01.732Z,9.83
2019-03-27T00:03:27.840Z,9.95
2019-03-27T00:03:53.950Z,9.92
2019-03-27T00:04:20.052Z,9.95
2019-03-27T00:04:46.192Z,9.92
2019-03-27T00:05:12.362Z,9.83
2019-03-27T00:05:38.497Z,9.86
2019-03-27T00:06:04.606Z,9.84
2019-03-27T00:06:30.714Z,9.95
2019-03-27T00:06:56.826Z,9.91
2019-03-27T00:07:22.963Z,9.92
2019-03-27T00:07:49.101Z,9.77
2019-03-27T00:08:15.282Z,9.79
2019-03-27T00:08:41.394Z,9.86
2019-03-27T00:09:07.499Z,9.82
2019-03-27T00:09:33.600Z,9.8
2019-03-27T00:09:59.714Z,9.82
2019-03-27T00:10:25.887Z,9.83
2019-03-27T00:10:52.055Z,9.79
2019-03-27T00:11:19.145Z,9.83
2019-03-27T00:11:45.259Z,9.84
2019-03-27T00:12:11.364Z,9.82
2019-03-27T00:12:37.470Z,9.84
2019-03-27T00:13:03.607Z,9.77
2019-03-27T00:13:29.715Z,9.82
2019-03-27T00:13:55.822Z,9.82
2019-03-27T00:14:21.960Z,9.82
2019-03-27T00:14:48.062Z,9.94
2019-03-27T00:15:16.170Z,9.91
2019-03-27T00:15:42.274Z,9.82
2019-03-27T00:16:08.387Z,9.95
2019-03-27T00:16:34.499Z,9.95
2019-03-27T00:17:00.622Z,9.91
2019-03-27T00:17:26.728Z,9.86
2019-03-27T00:17:52.841Z,9.92
2019-03-27T00:18:18.945Z,9.97
2019-03-27T00:18:45.053Z,9.86
2019-03-27T00:19:11.191Z,9.92
2019-03-27T00:19:37.299Z,9.84
2019-03-27T00:20:03.396Z,9.94
2019-03-27T00:20:29.511Z,9.83
2019-03-27T00:20:55.615Z,9.77
2019-03-27T00:21:21.724Z,9.83
2019-03-27T00:21:47.834Z,9.73
2019-03-27T00:22:13.942Z,9.77
2019-03-27T00:22:40.051Z,9.72
2019-03-27T00:23:06.157Z,9.79
2019-03-27T00:23:32.303Z,9.79
2019-03-27T00:23:58.406Z,9.82
2019-03-27T00:24:24.574Z,9.84
2019-03-27T00:24:50.680Z,9.8
2019-03-27T00:25:16.798Z,9.84
2019-03-27T00:25:42.925Z,9.77
2019-03-27T00:26:09.035Z,9.86
2019-03-27T00:26:35.145Z,9.83
2019-03-27T00:27:01.246Z,9.82
2019-03-27T00:27:27.413Z,9.77
2019-03-27T00:27:53.527Z,9.83
2019-03-27T00:28:19.626Z,9.83
2019-03-27T00:28:45.743Z,9.8
2019-03-27T00:29:11.848Z,9.79
2019-03-27T00:29:37.956Z,9.77
2019-03-27T00:30:04.060Z,9.83
2019-03-27T00:30:30.171Z,9.79
2019-03-27T00:30:56.278Z,9.82
2019-03-27T00:31:22.408Z,9.8
2019-03-27T00:31:48.515Z,9.8
2019-03-27T00:32:14.623Z,9.82
2019-03-27T00:32:40.728Z,9.91
2019-03-27T00:33:06.840Z,9.74
2019-03-27T00:33:32.978Z,9.73
2019-03-27T00:33:59.079Z,9.8
2019-03-27T00:34:25.194Z,9.69
2019-03-27T00:34:51.324Z,9.77
2019-03-27T00:35:17.437Z,9.69
2019-03-27T00:35:43.533Z,9.68
2019-03-27T00:36:09.677Z,9.68
2019-03-27T00:36:35.776Z,9.73
2019-03-27T00:37:01.888Z,9.73
2019-03-27T00:37:27.997Z,9.69
2019-03-27T00:37:54.132Z,9.69
2019-03-27T00:38:20.267Z,9.62
2019-03-27T00:38:46.375Z,9.62
2019-03-27T00:39:12.487Z,9.72
2019-03-27T00:39:38.627Z,9.62
2019-03-27T00:40:04.694Z,9.69
2019-03-27T00:40:30.807Z,9.74
2019-03-27T00:40:56.909Z,9.59
2019-03-27T00:41:23.024Z,9.58
2019-03-27T00:41:49.128Z,9.55
2019-03-27T00:42:15.238Z,9.58
2019-03-27T00:42:41.346Z,9.5
2019-03-27T00:43:07.483Z,9.48
2019-03-27T00:43:33.619Z,9.56
2019-03-27T00:43:59.733Z,9.5
2019-03-27T00:44:25.848Z,9.56
2019-03-27T00:44:51.946Z,9.58
2019-03-27T00:45:26.194Z,9.62
2019-03-27T00:45:46.169Z,9.62
2019-03-27T00:46:12.279Z,9.59
2019-03-27T00:46:38.418Z,9.64
2019-03-27T00:47:04.567Z,9.64
2019-03-27T00:47:30.702Z,9.64
2019-03-27T00:47:56.808Z,9.73
2019-03-27T00:48:22.921Z,9.61
2019-03-27T00:48:49.029Z,9.69
2019-03-27T00:49:15.126Z,9.64
2019-03-27T00:49:41.233Z,9.62
2019-03-27T00:50:07.343Z,9.74
2019-03-27T00:50:33.506Z,9.83
2019-03-27T00:50:59.568Z,9.79
2019-03-27T00:51:25.671Z,9.72
2019-03-27T00:51:51.785Z,9.72
2019-03-27T00:52:17.898Z,9.66
2019-03-27T00:52:44.007Z,9.62
2019-03-27T00:53:10.114Z,9.5
2019-03-27T00:53:36.218Z,9.44
2019-03-27T00:54:02.327Z,9.5
2019-03-27T00:54:28.434Z,9.56
2019-03-27T00:54:54.601Z,9.59
2019-03-27T00:55:20.715Z,9.54
2019-03-27T00:55:46.846Z,9.56
2019-03-27T00:56:12.959Z,9.56
2019-03-27T00:56:39.066Z,9.58
2019-03-27T00:57:05.174Z,9.59
2019-03-27T00:57:31.280Z,9.59
2019-03-27T00:57:57.385Z,9.56
2019-03-27T00:58:23.495Z,9.58
2019-03-27T00:58:49.599Z,9.59
2019-03-27T00:59:15.703Z,9.56
2019-03-27T00:59:41.814Z,9.56
2019-03-27T01:00:07.919Z,9.64
2019-03-27T01:00:34.031Z,9.58
2019-03-27T01:01:00.167Z,9.48
2019-03-27T01:01:26.303Z,9.66
2019-03-27T01:01:52.442Z,9.61
2019-03-27T01:02:18.554Z,9.65
2019-03-27T01:02:44.654Z,9.55
2019-03-27T01:03:10.765Z,9.62
2019-03-27T01:03:36.898Z,9.58
2019-03-27T01:04:03.012Z,9.61
2019-03-27T01:04:29.154Z,9.58
2019-03-27T01:04:55.264Z,9.59
2019-03-27T01:05:21.373Z,9.58
2019-03-27T01:05:47.476Z,9.65
2019-03-27T01:06:13.594Z,9.48
2019-03-27T01:06:39.701Z,9.58
2019-03-27T01:07:06.769Z,9.59
2019-03-27T01:07:32.877Z,9.64
2019-03-27T01:07:58.988Z,9.58
2019-03-27T01:08:25.099Z,9.68
2019-03-27T01:08:51.207Z,9.61
2019-03-27T01:09:17.312Z,9.58
2019-03-27T01:09:43.419Z,9.65
2019-03-27T01:10:09.553Z,9.66
2019-03-27T01:10:35.659Z,9.58
2019-03-27T01:11:01.791Z,9.61
2019-03-27T01:11:27.949Z,9.55
2019-03-27T01:11:54.049Z,9.61
2019-03-27T01:12:20.201Z,9.59
2019-03-27T01:12:46.312Z,9.61
2019-03-27T01:13:12.421Z,9.61
2019-03-27T01:13:38.522Z,9.58
2019-03-27T01:14:04.625Z,9.55
2019-03-27T01:14:30.734Z,9.54
2019-03-27T01:14:56.845Z,9.51
2019-03-27T01:15:22.953Z,9.46
2019-03-27T01:15:51.041Z,9.46
2019-03-27T01:16:17.152Z,9.43
2019-03-27T01:16:43.249Z,9.39
2019-03-27T01:17:09.358Z,9.47
2019-03-27T01:17:35.462Z,9.47
2019-03-27T01:18:01.606Z,9.48
2019-03-27T01:18:27.708Z,9.47
2019-03-27T01:18:53.820Z,9.46
2019-03-27T01:19:19.993Z,9.5
2019-03-27T01:19:46.063Z,9.44
2019-03-27T01:20:12.176Z,9.48
2019-03-27T01:20:38.285Z,9.47
2019-03-27T01:21:04.388Z,9.48
2019-03-27T01:21:30.498Z,9.46
2019-03-27T01:21:56.633Z,9.47
2019-03-27T01:22:22.744Z,9.34
2019-03-27T01:22:48.861Z,9.34
2019-03-27T01:23:14.981Z,9.4
2019-03-27T01:23:41.094Z,9.43
2019-03-27T01:24:07.207Z,9.32
2019-03-27T01:24:33.363Z,9.43
2019-03-27T01:24:59.474Z,9.34
2019-03-27T01:25:25.612Z,9.37
2019-03-27T01:25:51.716Z,9.39
2019-03-27T01:26:17.875Z,9.39
2019-03-27T01:26:43.978Z,9.34
2019-03-27T01:27:10.082Z,9.26
2019-03-27T01:27:36.193Z,9.25
2019-03-27T01:28:02.303Z,9.26
2019-03-27T01:28:28.412Z,9.29
2019-03-27T01:28:54.522Z,9.25
2019-03-27T01:29:20.663Z,9.16
2019-03-27T01:29:46.792Z,9.21
2019-03-27T01:30:12.931Z,9.19
2019-03-27T01:30:39.065Z,9.18
2019-03-27T01:31:05.170Z,9.14
2019-03-27T01:31:31.277Z,9.22
2019-03-27T01:31:57.384Z,9.25
2019-03-27T01:32:23.495Z,9.18
2019-03-27T01:32:49.686Z,9.16
2019-03-27T01:33:15.734Z,9.21
2019-03-27T01:33:41.842Z,9.22
2019-03-27T01:34:07.985Z,9.21
2019-03-27T01:34:34.097Z,9.21
2019-03-27T01:35:00.368Z,9.23
2019-03-27T01:35:26.470Z,9.22
2019-03-27T01:35:52.573Z,9.26
2019-03-27T01:36:18.688Z,9.13
2019-03-27T01:36:44.795Z,9.21
2019-03-27T01:37:10.932Z,9.18
2019-03-27T01:37:37.040Z,9.19
2019-03-27T01:38:03.153Z,9.16
2019-03-27T01:38:29.265Z,9.18
2019-03-27T01:38:55.368Z,9.14
2019-03-27T01:39:21.469Z,9.22
2019-03-27T01:39:47.606Z,9.25
2019-03-27T01:40:13.720Z,9.23
2019-03-27T01:40:39.856Z,9.18
2019-03-27T01:41:05.975Z,9.14
2019-03-27T01:41:32.083Z,9.1
2019-03-27T01:41:58.193Z,9.08
2019-03-27T01:42:24.295Z,9.02
2019-03-27T01:42:50.409Z,9.16
2019-03-27T01:43:16.517Z,9.21
2019-03-27T01:43:42.620Z,9.14
2019-03-27T01:44:08.727Z,9.14
2019-03-27T01:44:34.834Z,9.04
2019-03-27T01:45:00.942Z,9.1
2019-03-27T01:45:27.050Z,9.1
2019-03-27T01:45:54.171Z,9.19
2019-03-27T01:46:20.276Z,9.18
2019-03-27T01:46:46.395Z,9.16
2019-03-27T01:47:12.528Z,9.08
2019-03-27T01:47:38.646Z,9.11
2019-03-27T01:48:04.778Z,9.04
2019-03-27T01:48:30.885Z,9.1
2019-03-27T01:48:56.990Z,9.02
2019-03-27T01:49:23.109Z,9
2019-03-27T01:49:49.214Z,9.04
2019-03-27T01:50:15.344Z,8.92
2019-03-27T01:50:41.456Z,8.94
2019-03-27T01:51:07.552Z,8.94
2019-03-27T01:51:33.666Z,9.04
2019-03-27T01:51:59.775Z,8.95
2019-03-27T01:52:26.870Z,8.94
2019-03-27T01:52:52.980Z,8.92
2019-03-27T01:53:19.084Z,8.89
2019-03-27T01:53:45.250Z,8.87
2019-03-27T01:54:11.351Z,8.89
2019-03-27T01:54:37.484Z,8.87
2019-03-27T01:55:03.595Z,8.89
2019-03-27T01:55:29.693Z,8.88
2019-03-27T01:55:55.798Z,8.84
2019-03-27T01:56:21.932Z,8.82
2019-03-27T01:56:48.044Z,8.85
2019-03-27T01:57:14.148Z,8.84
2019-03-27T01:57:40.257Z,8.87
2019-03-27T01:58:06.367Z,8.91
2019-03-27T01:58:32.473Z,8.92
2019-03-27T01:58:58.577Z,8.84
2019-03-27T01:59:24.681Z,8.84
2019-03-27T01:59:50.796Z,8.81
2019-03-27T02:00:16.905Z,8.84
2019-03-27T02:00:43.014Z,8.85
2019-03-27T02:01:09.120Z,8.79
2019-03-27T02:01:35.230Z,8.76
2019-03-27T02:02:01.333Z,8.81
2019-03-27T02:02:27.475Z,8.76
2019-03-27T02:02:53.581Z,8.78
2019-03-27T02:03:19.688Z,8.81
2019-03-27T02:03:45.798Z,8.88
2019-03-27T02:04:11.900Z,8.84
2019-03-27T02:04:38.002Z,8.78
2019-03-27T02:05:04.110Z,8.82
2019-03-27T02:05:30.242Z,8.73
2019-03-27T02:05:56.373Z,8.73
2019-03-27T02:06:22.506Z,8.73
2019-03-27T02:06:48.613Z,8.78
2019-03-27T02:07:14.720Z,8.76
2019-03-27T02:07:40.886Z,8.73
2019-03-27T02:08:06.998Z,8.78
2019-03-27T02:08:33.096Z,8.74
2019-03-27T02:08:59.205Z,8.74
2019-03-27T02:09:25.330Z,8.71
2019-03-27T02:09:51.434Z,8.71
2019-03-27T02:10:17.549Z,8.71
2019-03-27T02:10:43.657Z,8.74
2019-03-27T02:11:09.760Z,8.64
2019-03-27T02:11:35.870Z,8.73
2019-03-27T02:12:01.979Z,8.71
2019-03-27T02:12:28.117Z,8.79
2019-03-27T02:12:54.223Z,8.73
2019-03-27T02:13:20.329Z,8.76
2019-03-27T02:13:46.439Z,8.76
2019-03-27T02:14:12.560Z,8.73
2019-03-27T02:14:38.668Z,8.79
2019-03-27T02:15:04.766Z,8.76
2019-03-27T02:15:30.942Z,8.87
2019-03-27T02:16:06.511Z,8.88
2019-03-27T02:16:24.166Z,8.88
2019-03-27T02:16:50.301Z,8.88
2019-03-27T02:17:16.442Z,8.74
2019-03-27T02:17:42.546Z,8.85
2019-03-27T02:18:08.699Z,8.88
2019-03-27T02:18:34.800Z,8.78
2019-03-27T02:19:00.911Z,8.82
2019-03-27T02:19:27.023Z,8.94
2019-03-27T02:19:53.138Z,8.79
2019-03-27T02:20:19.269Z,8.89
2019-03-27T02:20:45.369Z,8.82
2019-03-27T02:21:11.503Z,8.7
2019-03-27T02:21:37.613Z,8.78
2019-03-27T02:22:03.754Z,8.71
2019-03-27T02:22:29.854Z,8.6
2019-03-27T02:22:55.960Z,8.7
2019-03-27T02:23:22.081Z,8.71
2019-03-27T02:23:48.189Z,8.7
2019-03-27T02:24:14.353Z,8.6
2019-03-27T02:24:40.489Z,8.7
2019-03-27T02:25:06.647Z,8.63
2019-03-27T02:25:32.757Z,8.63
2019-03-27T02:25:58.893Z,8.67
2019-03-27T02:26:24.998Z,8.63
2019-03-27T02:26:51.108Z,8.64
2019-03-27T02:27:17.224Z,8.64
2019-03-27T02:27:43.350Z,8.69
2019-03-27T02:28:09.458Z,8.66
2019-03-27T02:28:35.563Z,8.64
2019-03-27T02:29:01.669Z,8.63
2019-03-27T02:29:27.781Z,8.66
2019-03-27T02:29:53.885Z,8.6
2019-03-27T02:30:20.016Z,8.69
2019-03-27T02:30:46.207Z,8.63
2019-03-27T02:31:12.381Z,8.73
2019-03-27T02:31:38.513Z,8.67
2019-03-27T02:32:04.622Z,8.67
2019-03-27T02:32:31.463Z,8.6
2019-03-27T02:32:57.703Z,8.67
2019-03-27T02:33:23.809Z,8.64
2019-03-27T02:33:49.947Z,8.64
2019-03-27T02:34:16.103Z,8.67
2019-03-27T02:34:42.211Z,8.63
2019-03-27T02:35:08.435Z,8.6
2019-03-27T02:35:34.602Z,8.67
2019-03-27T02:36:00.731Z,8.66
2019-03-27T02:36:26.883Z,8.7
2019-03-27T02:36:53.008Z,8.69
2019-03-27T02:37:19.116Z,8.7
2019-03-27T02:37:45.279Z,8.74
2019-03-27T02:38:11.397Z,8.7
2019-03-27T02:38:37.620Z,8.61
2019-03-27T02:39:03.722Z,8.6
2019-03-27T02:39:29.832Z,8.63
2019-03-27T02:39:55.953Z,8.63
2019-03-27T02:40:22.121Z,8.61
2019-03-27T02:40:48.259Z,8.58
2019-03-27T02:41:14.389Z,8.52
2019-03-27T02:41:40.548Z,8.52
2019-03-27T02:42:06.687Z,8.63
2019-03-27T02:42:32.796Z,8.63
2019-03-27T02:42:58.966Z,8.67
2019-03-27T02:43:25.069Z,8.58
2019-03-27T02:43:51.243Z,8.66
2019-03-27T02:44:17.365Z,8.6
2019-03-27T02:44:43.471Z,8.6
2019-03-27T02:45:09.578Z,8.55
2019-03-27T02:45:35.706Z,8.55
2019-03-27T02:46:01.845Z,8.46
2019-03-27T02:46:29.054Z,8.61
2019-03-27T02:46:55.180Z,8.53
2019-03-27T02:47:21.346Z,8.55
2019-03-27T02:47:47.479Z,8.48
2019-03-27T02:48:14.070Z,8.56
2019-03-27T02:48:40.322Z,8.64
2019-03-27T02:49:06.434Z,8.64
2019-03-27T02:49:32.600Z,8.52
2019-03-27T02:49:58.740Z,8.66
2019-03-27T02:50:24.952Z,8.63
2019-03-27T02:50:51.080Z,8.63
2019-03-27T02:51:17.238Z,8.67
2019-03-27T02:51:43.410Z,8.6
2019-03-27T02:52:09.521Z,8.66
2019-03-27T02:52:35.616Z,8.63
2019-03-27T02:53:01.725Z,8.63
2019-03-27T02:53:27.839Z,8.64
2019-03-27T02:53:53.971Z,8.52
2019-03-27T02:54:20.101Z,8.55
2019-03-27T02:54:46.242Z,8.61
2019-03-27T02:55:12.373Z,8.56
2019-03-27T02:55:38.475Z,8.56
2019-03-27T02:56:04.587Z,8.63
2019-03-27T02:56:30.768Z,8.52
2019-03-27T02:56:56.909Z,8.6
2019-03-27T02:57:23.038Z,8.64
2019-03-27T02:57:49.168Z,8.7
2019-03-27T02:58:15.296Z,8.56
2019-03-27T02:58:41.432Z,8.61
2019-03-27T02:59:07.605Z,8.6
2019-03-27T02:59:33.769Z,8.7
2019-03-27T02:59:59.873Z,8.67
2019-03-27T03:00:26.026Z,8.71
2019-03-27T03:00:52.170Z,8.73
2019-03-27T03:01:18.315Z,8.69
2019-03-27T03:01:47.775Z,8.74
2019-03-27T03:02:10.585Z,8.74
2019-03-27T03:02:36.735Z,8.69
2019-03-27T03:03:02.870Z,8.74
2019-03-27T03:03:28.972Z,8.76
2019-03-27T03:03:55.135Z,8.73
2019-03-27T03:04:21.357Z,8.78
2019-03-27T03:04:47.468Z,8.81
2019-03-27T03:05:13.602Z,8.71
2019-03-27T03:05:39.706Z,8.69
2019-03-27T03:06:05.927Z,8.79
2019-03-27T03:06:31.999Z,8.76
2019-03-27T03:06:58.164Z,8.74
2019-03-27T03:07:24.306Z,8.76
2019-03-27T03:07:50.468Z,8.78
2019-03-27T03:08:16.660Z,8.79
2019-03-27T03:08:42.821Z,8.74
2019-03-27T03:09:08.956Z,8.78
2019-03-27T03:09:35.213Z,8.78
2019-03-27T03:10:01.420Z,8.76
2019-03-27T03:10:27.558Z,8.76
2019-03-27T03:10:54.709Z,8.82
2019-03-27T03:11:20.842Z,8.82
2019-03-27T03:11:46.986Z,8.84
2019-03-27T03:12:13.156Z,8.85
2019-03-27T03:12:39.369Z,8.84
2019-03-27T03:13:05.542Z,8.84
2019-03-27T03:13:31.679Z,8.84
2019-03-27T03:13:57.825Z,8.78
2019-03-27T03:14:23.985Z,8.84
2019-03-27T03:14:50.123Z,8.81
2019-03-27T03:15:16.285Z,8.82
2019-03-27T03:15:42.422Z,8.74
2019-03-27T03:16:08.525Z,8.79
2019-03-27T03:16:42.471Z,8.73
2019-03-27T03:17:03.756Z,8.78
2019-03-27T03:17:29.861Z,8.76
2019-03-27T03:17:56.012Z,8.63
2019-03-27T03:18:22.140Z,8.63
2019-03-27T03:18:48.274Z,8.61
2019-03-27T03:19:14.443Z,8.64
2019-03-27T03:19:40.587Z,8.63
2019-03-27T03:20:06.747Z,8.64
2019-03-27T03:20:32.884Z,8.67
2019-03-27T03:20:58.993Z,8.63
2019-03-27T03:21:25.144Z,8.67
2019-03-27T03:21:51.241Z,8.69
2019-03-27T03:22:17.405Z,8.66
2019-03-27T03:22:43.533Z,8.64
2019-03-27T03:23:09.642Z,8.6
2019-03-27T03:23:35.783Z,8.64
2019-03-27T03:24:01.890Z,8.63
2019-03-27T03:24:28.042Z,8.63
2019-03-27T03:24:54.210Z,8.52
2019-03-27T03:25:20.343Z,8.42
2019-03-27T03:25:46.477Z,8.44
2019-03-27T03:26:12.591Z,8.52
2019-03-27T03:26:38.701Z,8.41
2019-03-27T03:27:05.850Z,8.49
2019-03-27T03:27:31.984Z,8.49
2019-03-27T03:27:58.151Z,8.51
2019-03-27T03:28:24.282Z,8.58
2019-03-27T03:28:50.426Z,8.48
2019-03-27T03:29:16.588Z,8.48
2019-03-27T03:29:42.724Z,8.38
2019-03-27T03:30:08.880Z,8.31
2019-03-27T03:30:35.063Z,8.34
2019-03-27T03:31:01.177Z,8.38
2019-03-27T03:31:27.334Z,8.33
2019-03-27T03:31:53.505Z,8.41
2019-03-27T03:32:19.601Z,8.28
2019-03-27T03:32:45.855Z,8.27
2019-03-27T03:33:12.025Z,8.34
2019-03-27T03:33:38.145Z,8.28
2019-03-27T03:34:04.283Z,8.31
2019-03-27T03:34:30.397Z,8.36
2019-03-27T03:34:56.590Z,8.37
2019-03-27T03:35:22.790Z,8.3
2019-03-27T03:35:48.957Z,8.28
2019-03-27T03:36:15.064Z,8.27
2019-03-27T03:36:41.167Z,8.28
2019-03-27T03:37:07.269Z,8.28
2019-03-27T03:37:33.385Z,8.23
2019-03-27T03:37:59.511Z,8.28
2019-03-27T03:38:25.693Z,8.28
2019-03-27T03:38:51.875Z,8.28
2019-03-27T03:39:18.009Z,8.27
2019-03-27T03:39:44.205Z,8.18
2019-03-27T03:40:10.311Z,8.3
2019-03-27T03:40:36.479Z,8.19
2019-03-27T03:41:02.622Z,8.2
2019-03-27T03:41:28.764Z,8.13
2019-03-27T03:41:54.926Z,8.2
2019-03-27T03:42:21.038Z,8.19
2019-03-27T03:42:47.204Z,8.19
2019-03-27T03:43:13.372Z,8.3
2019-03-27T03:43:39.473Z,8.37
2019-03-27T03:44:05.616Z,8.38
2019-03-27T03:44:31.749Z,8.31
2019-03-27T03:44:57.877Z,8.3
2019-03-27T03:45:24.015Z,8.37
2019-03-27T03:45:50.188Z,8.38
2019-03-27T03:46:16.375Z,8.34
2019-03-27T03:46:58.331Z,8.41
2019-03-27T03:47:11.179Z,8.42
2019-03-27T03:47:37.307Z,8.41
2019-03-27T03:48:03.446Z,8.45
2019-03-27T03:48:29.613Z,8.41
2019-03-27T03:48:55.750Z,8.41
2019-03-27T03:49:21.943Z,8.42
2019-03-27T03:49:48.051Z,8.38
2019-03-27T03:50:14.192Z,8.37
2019-03-27T03:50:40.394Z,8.3
2019-03-27T03:51:06.523Z,8.3
2019-03-27T03:51:32.671Z,8.42
2019-03-27T03:51:58.835Z,8.36
2019-03-27T03:52:24.946Z,8.36
2019-03-27T03:52:51.461Z,8.34
2019-03-27T03:53:17.564Z,8.37
2019-03-27T03:53:43.668Z,8.36
2019-03-27T03:54:09.867Z,8.34
2019-03-27T03:54:36.001Z,8.31
2019-03-27T03:55:02.161Z,8.37
2019-03-27T03:55:28.332Z,8.41
2019-03-27T03:55:54.436Z,8.38
2019-03-27T03:56:20.601Z,8.42
2019-03-27T03:56:46.706Z,8.27
2019-03-27T03:57:12.839Z,8.38
2019-03-27T03:57:38.958Z,8.42
2019-03-27T03:58:05.124Z,8.34
2019-03-27T03:58:31.425Z,8.42
2019-03-27T03:58:58.293Z,8.42
2019-03-27T03:59:24.514Z,8.38
2019-03-27T03:59:50.626Z,8.38
2019-03-27T04:00:17.005Z,8.28
2019-03-27T04:00:43.145Z,8.34
2019-03-27T04:01:09.340Z,8.37
2019-03-27T04:01:35.456Z,8.37
2019-03-27T04:02:01.816Z,8.37
2019-03-27T04:02:27.988Z,8.38
2019-03-27T04:02:54.168Z,8.36
2019-03-27T04:03:20.603Z,8.36
2019-03-27T04:03:47.109Z,8.37
2019-03-27T04:04:13.446Z,8.36
2019-03-27T04:04:42.580Z,8.44
2019-03-27T04:05:08.956Z,8.41
2019-03-27T04:05:35.681Z,8.44
2019-03-27T04:06:02.188Z,8.44
2019-03-27T04:06:28.457Z,8.42
2019-03-27T04:06:54.994Z,8.45
2019-03-27T04:07:21.194Z,8.44
2019-03-27T04:07:47.618Z,8.52
2019-03-27T04:08:13.786Z,8.45
2019-03-27T04:08:40.466Z,8.46
2019-03-27T04:09:06.809Z,8.49
2019-03-27T04:09:33.117Z,8.44
2019-03-27T04:09:59.386Z,8.45
2019-03-27T04:10:25.672Z,8.46
2019-03-27T04:10:52.207Z,8.46
2019-03-27T04:11:18.850Z,8.56
2019-03-27T04:11:45.130Z,8.55
2019-03-27T04:12:11.605Z,8.55
2019-03-27T04:12:38.110Z,8.42
2019-03-27T04:13:04.355Z,8.58
2019-03-27T04:13:30.480Z,8.6
2019-03-27T04:13:56.944Z,8.46
2019-03-27T04:14:23.137Z,8.61
2019-03-27T04:14:49.705Z,8.61
2019-03-27T04:15:16.113Z,8.64
2019-03-27T04:15:42.356Z,8.61
2019-03-27T04:16:08.599Z,8.55
2019-03-27T04:16:35.027Z,8.51
2019-03-27T04:17:16.045Z,8.63
2019-03-27T04:17:30.701Z,8.55
2019-03-27T04:17:57.102Z,8.64
2019-03-27T04:18:23.263Z,8.61
2019-03-27T04:18:49.372Z,8.6
2019-03-27T04:19:16.070Z,8.67
2019-03-27T04:19:42.498Z,8.6
2019-03-27T04:20:09.090Z,8.71
2019-03-27T04:20:35.201Z,8.71
2019-03-27T04:21:02.013Z,8.73
2019-03-27T04:21:29.215Z,8.78
2019-03-27T04:21:55.415Z,8.73
2019-03-27T04:22:21.650Z,8.7
2019-03-27T04:22:48.319Z,8.7
2019-03-27T04:23:14.785Z,8.76
2019-03-27T04:23:41.221Z,8.79
2019-03-27T04:24:07.558Z,8.73
2019-03-27T04:24:33.843Z,8.81
2019-03-27T04:25:00.532Z,8.76
2019-03-27T04:25:26.868Z,8.74
2019-03-27T04:26:08.692Z,8.71
2019-03-27T04:26:25.248Z,8.71
2019-03-27T04:26:52.369Z,8.64
2019-03-27T04:27:18.533Z,8.71
2019-03-27T04:27:44.690Z,8.71
2019-03-27T04:28:10.815Z,8.79
2019-03-27T04:28:36.995Z,8.78
2019-03-27T04:29:03.104Z,8.82
2019-03-27T04:29:29.260Z,8.85
2019-03-27T04:29:55.406Z,8.85
2019-03-27T04:30:21.468Z,8.81
2019-03-27T04:30:47.578Z,8.81
2019-03-27T04:31:13.742Z,8.76
2019-03-27T04:31:39.909Z,8.79
2019-03-27T04:32:06.023Z,8.7
2019-03-27T04:32:32.160Z,8.7
2019-03-27T04:32:58.322Z,8.71
2019-03-27T04:33:24.458Z,8.63
2019-03-27T04:33:50.663Z,8.63
2019-03-27T04:34:16.797Z,8.6
2019-03-27T04:34:46.788Z,8.63
2019-03-27T04:35:10.013Z,8.69
2019-03-27T04:35:36.233Z,8.71
2019-03-27T04:36:02.343Z,8.63
2019-03-27T04:36:28.482Z,8.61
2019-03-27T04:36:54.651Z,8.63
2019-03-27T04:37:20.758Z,8.46
2019-03-27T04:37:46.921Z,8.46
2019-03-27T04:38:13.080Z,8.33
2019-03-27T04:38:39.220Z,8.44
2019-03-27T04:39:05.349Z,8.44
2019-03-27T04:39:31.517Z,8.53
2019-03-27T04:39:57.623Z,8.52
2019-03-27T04:40:23.761Z,8.55
2019-03-27T04:40:49.861Z,8.53
2019-03-27T04:41:15.972Z,8.55
2019-03-27T04:41:42.138Z,8.51
2019-03-27T04:42:08.274Z,8.55
2019-03-27T04:42:34.429Z,8.55
2019-03-27T04:43:00.550Z,8.52
2019-03-27T04:43:26.694Z,8.44
2019-03-27T04:43:52.784Z,8.42
2019-03-27T04:44:18.920Z,8.52
2019-03-27T04:44:45.025Z,8.63
2019-03-27T04:45:11.190Z,8.52
2019-03-27T04:45:37.295Z,8.64
2019-03-27T04:46:03.488Z,8.53
2019-03-27T04:46:29.534Z,8.61
2019-03-27T04:46:55.662Z,8.52
2019-03-27T04:47:31.766Z,8.52
2019-03-27T04:47:48.908Z,8.45
2019-03-27T04:48:15.015Z,8.52
2019-03-27T04:48:41.148Z,8.63
2019-03-27T04:49:07.754Z,8.64
2019-03-27T04:49:33.962Z,8.64
2019-03-27T04:50:00.102Z,8.55
2019-03-27T04:50:26.223Z,8.64
2019-03-27T04:50:52.352Z,8.61
2019-03-27T04:51:18.480Z,8.6
2019-03-27T04:51:44.608Z,8.63
2019-03-27T04:52:10.718Z,8.58
2019-03-27T04:52:36.820Z,8.61
2019-03-27T04:53:02.934Z,8.67
2019-03-27T04:53:29.034Z,8.61
2019-03-27T04:53:55.151Z,8.67
2019-03-27T04:54:21.250Z,8.66
2019-03-27T04:54:47.383Z,8.6
2019-03-27T04:55:13.487Z,8.63
2019-03-27T04:55:39.593Z,8.7
2019-03-27T04:56:05.706Z,8.66
2019-03-27T04:56:31.809Z,8.71
2019-03-27T04:56:57.911Z,8.64
2019-03-27T04:57:24.021Z,8.67
2019-03-27T04:57:50.154Z,8.61
2019-03-27T04:58:16.267Z,8.61
2019-03-27T04:58:42.372Z,8.63
2019-03-27T04:59:08.547Z,8.6
2019-03-27T04:59:34.600Z,8.56
2019-03-27T05:00:00.712Z,8.78
2019-03-27T05:00:26.877Z,8.71
2019-03-27T05:00:53.008Z,8.69
2019-03-27T05:01:19.145Z,8.73
2019-03-27T05:01:45.278Z,8.76
2019-03-27T05:02:11.945Z,8.81
2019-03-27T05:02:38.102Z,8.78
2019-03-27T05:03:04.239Z,8.81
2019-03-27T05:03:30.356Z,8.87
2019-03-27T05:03:56.468Z,8.88
2019-03-27T05:04:22.572Z,8.79
2019-03-27T05:04:48.679Z,8.79
2019-03-27T05:05:14.819Z,8.84
2019-03-27T05:05:40.916Z,8.84
2019-03-27T05:06:07.056Z,8.95
2019-03-27T05:06:33.195Z,8.87
2019-03-27T05:06:59.319Z,9
2019-03-27T05:07:25.427Z,8.94
2019-03-27T05:07:51.534Z,8.88
2019-03-27T05:08:17.671Z,8.87
2019-03-27T05:08:43.778Z,8.99
2019-03-27T05:09:09.883Z,8.97
2019-03-27T05:09:36.002Z,8.99
2019-03-27T05:10:02.105Z,9
2019-03-27T05:10:28.210Z,8.97
2019-03-27T05:10:54.320Z,8.97
2019-03-27T05:11:20.423Z,8.97
2019-03-27T05:11:46.538Z,8.92
2019-03-27T05:12:12.639Z,8.91
2019-03-27T05:12:39.056Z,9
2019-03-27T05:13:05.148Z,9
2019-03-27T05:13:31.248Z,9.11
2019-03-27T05:13:57.361Z,9.18
2019-03-27T05:14:23.459Z,9.11
2019-03-27T05:14:49.574Z,9.02
2019-03-27T05:15:15.667Z,9.04
2019-03-27T05:15:41.810Z,9.08
2019-03-27T05:16:07.978Z,9.13
2019-03-27T05:16:34.088Z,9.13
2019-03-27T05:17:00.226Z,9.18
2019-03-27T05:17:26.336Z,9.08
2019-03-27T05:17:54.470Z,9.19
2019-03-27T05:18:20.580Z,9.14
2019-03-27T05:18:46.715Z,9.18
2019-03-27T05:19:12.828Z,9.16
2019-03-27T05:19:38.920Z,9.16
2019-03-27T05:20:05.059Z,9.18
2019-03-27T05:20:32.171Z,9.11
2019-03-27T05:20:58.262Z,9.18
2019-03-27T05:21:24.414Z,9.08
2019-03-27T05:21:50.545Z,9.16
2019-03-27T05:22:16.649Z,9.16
2019-03-27T05:22:42.788Z,9.14
2019-03-27T05:23:08.920Z,9.14
2019-03-27T05:23:35.113Z,9.13
2019-03-27T05:24:01.165Z,9.18
2019-03-27T05:24:27.281Z,9.21
2019-03-27T05:24:53.387Z,9.13
2019-03-27T05:25:19.522Z,9.18
2019-03-27T05:25:45.629Z,9.14
2019-03-27T05:26:11.770Z,9.13
2019-03-27T05:26:37.873Z,9.18
2019-03-27T05:27:03.987Z,9.21
2019-03-27T05:27:30.088Z,9.14
2019-03-27T05:27:57.187Z,9.22
2019-03-27T05:28:23.326Z,9.25
2019-03-27T05:28:49.445Z,9.25
2019-03-27T05:29:15.549Z,9.21
2019-03-27T05:29:41.711Z,9.29
2019-03-27T05:30:07.821Z,9.26
2019-03-27T05:30:33.958Z,9.21
2019-03-27T05:31:00.100Z,9.14
2019-03-27T05:31:26.205Z,9.18
2019-03-27T05:31:52.313Z,9.22
2019-03-27T05:32:18.422Z,9.18
2019-03-27T05:32:44.534Z,9.21
2019-03-27T05:33:10.641Z,9.16
2019-03-27T05:33:37.736Z,9.11
2019-03-27T05:34:03.848Z,9.13
2019-03-27T05:34:30.022Z,9.1
2019-03-27T05:34:56.126Z,9.18
2019-03-27T05:35:22.262Z,9.11
2019-03-27T05:35:48.409Z,9.18
2019-03-27T05:36:14.518Z,9.16
2019-03-27T05:36:40.627Z,9.23
2019-03-27T05:37:06.733Z,9.26
2019-03-27T05:37:32.868Z,9.14
2019-03-27T05:37:59.010Z,9.23
2019-03-27T05:38:25.150Z,9.18
2019-03-27T05:38:51.262Z,9.23
2019-03-27T05:39:17.392Z,9.16
2019-03-27T05:39:43.505Z,9.13
2019-03-27T05:40:09.636Z,9.25
2019-03-27T05:40:35.736Z,9.22
2019-03-27T05:41:01.904Z,9.23
2019-03-27T05:41:27.994Z,9.18
2019-03-27T05:41:54.101Z,9.22
2019-03-27T05:42:20.208Z,9.11
2019-03-27T05:42:59.639Z,9.21
2019-03-27T05:43:15.396Z,9.23
2019-03-27T05:43:41.505Z,9.22
2019-03-27T05:44:07.644Z,9.25
2019-03-27T05:44:33.745Z,9.19
2019-03-27T05:44:59.859Z,9.16
2019-03-27T05:45:25.967Z,9.14
2019-03-27T05:45:52.109Z,9.19
2019-03-27T05:46:18.222Z,9.23
2019-03-27T05:46:44.361Z,9.25
2019-03-27T05:47:10.500Z,9.21
2019-03-27T05:47:36.604Z,9.21
2019-03-27T05:48:05.373Z,9.22
2019-03-27T05:48:31.515Z,9.25
2019-03-27T05:48:57.620Z,9.26
2019-03-27T05:49:23.726Z,9.22
2019-03-27T05:49:49.833Z,9.26